Latest Weather Observations for Combienbar

IDV60801

Issued at 12:34 pm EDT Friday 20 January 2017 (issued every 30 minutes, with the page automatically refreshed every 10 minutes)

About weather observations | Map of weather stations | Latest weather observations for VIC | Other Formats
Station Details ID: 084143 Name: COMBIENBAR AWS Lat: -37.34 Lon: 149.02 Height: 640.0 m
Data from the previous 72 hours. | See also: Recent months at Combienbar
Date/Time
EDT
Temp
°C
App
Temp
°C
Dew
Point
°C
Rel
Hum
%
Delta-T
°C
Wind Press
QNH
hPa
Press
MSL
hPa
Rain since
9am
mm
Dir  Spd
km/h
Gust
km/h
Spd
kts
Gust
kts
20/12:30pm 18.1 20.7 17.5 96 0.4 CALM 0 4 0 2 994.4 991.4 0.0
20/12:00pm 18.9 20.7 17.4 91 0.9 WSW 4 7 2 4 994.2 991.2 0.0
20/11:30am 21.7 23.1 16.4 72 3.3 SSE 4 13 2 7 993.2 990.1 0.0
20/11:00am 21.3 22.5 16.9 76 2.8 W 6 20 3 11 992.7 989.7 0.0
20/10:30am 17.2 18.3 15.7 91 0.9 NE 4 9 2 5 993.1 990.0 0.0
20/10:00am 16.6 18.2 16.0 96 0.4 NNE 2 9 1 5 994.1 991.1 0.0
20/09:30am 15.8 17.0 15.0 95 0.5 N 2 4 1 2 995.7 992.7 0.0
20/09:00am 15.8 17.0 15.0 95 0.5 NNE 2 7 1 4 997.1 994.1 0.0
20/08:30am 15.6 16.7 14.6 94 0.6 NNE 2 4 1 2 997.9 994.9 0.0
20/08:00am 15.9 17.1 14.8 93 0.7 NE 2 6 1 3 999.0 996.1 0.0
20/07:30am 16.7 17.9 13.8 83 1.7 CALM 0 2 0 1 999.9 996.9 0.0
20/07:00am 17.2 17.7 12.9 76 2.5 NW 2 6 1 3 1000.1 997.1 0.0
20/06:30am 18.0 17.8 13.5 75 2.6 WSW 7 20 4 11 1000.5 997.6 0.0
20/06:23am 17.7 18.2 12.8 73 2.8 SW 2 9 1 5 1000.6 997.7 0.0
20/06:00am 17.9 17.7 11.7 67 3.5 SSW 4 7 2 4 998.5 995.5 0.0
20/05:30am 19.3 18.0 11.3 60 4.5 NW 9 28 5 15 997.2 994.2 0.0
20/05:00am 19.5 17.1 11.3 59 4.7 N 15 33 8 18 997.1 994.1 0.0
20/04:30am 17.5 17.2 11.5 68 3.4 S 4 17 2 9 998.0 995.0 0.0
20/04:00am 18.2 17.3 11.5 65 3.8 ENE 7 19 4 10 999.4 996.5 0.0
20/03:30am 17.3 16.5 11.8 70 3.1 W 7 24 4 13 1000.3 997.4 0.0
20/03:00am 16.3 15.8 11.9 75 2.5 SE 6 17 3 9 1001.3 998.3 0.0
20/02:30am 16.3 15.8 11.9 75 2.5 ESE 6 13 3 7 1001.9 999.0 0.0
20/02:00am 16.4 15.6 11.8 74 2.6 N 7 20 4 11 1002.1 999.2 0.0
20/01:30am 16.6 14.8 12.0 74 2.6 NNE 13 30 7 16 1002.4 999.5 0.0
20/01:00am 16.2 15.4 11.8 75 2.5 NNE 7 22 4 12 1003.6 1000.7 0.0
20/12:30am 15.8 15.6 11.8 77 2.2 ESE 4 11 2 6 1004.1 1001.2 0.0
20/12:00am 15.2 14.5 11.4 78 2.1 NNE 6 15 3 8 1005.5 1002.6 0.0
 
Date/Time
EDT
Temp
°C
App
Temp
°C
Dew
Point
°C
Rel
Hum
%
Delta-T
°C
Wind Press
QNH
hPa
Press
MSL
hPa
Rain since
9am
mm
Dir  Spd
km/h
Gust
km/h
Spd
kts
Gust
kts
19/11:30pm 15.2 13.9 11.4 78 2.1 NNE 9 24 5 13 1006.0 1003.2 0.0
19/11:00pm 15.3 14.0 11.1 76 2.3 NNE 9 28 5 15 1007.0 1004.1 0.0
19/10:30pm 15.6 14.8 11.2 75 2.4 N 6 15 3 8 1007.9 1005.0 0.0
19/10:00pm 15.9 15.2 11.3 74 2.6 NNW 6 15 3 8 1008.2 1005.3 0.0
19/09:30pm 15.9 15.5 11.1 73 2.7 N 4 9 2 5 1008.4 1005.5 0.0
19/09:00pm 16.3 16.3 11.0 71 2.9 NNW 2 7 1 4 1008.7 1005.9 0.0
19/08:30pm 16.9 16.5 11.2 69 3.2 N 4 13 2 7 1008.8 1006.0 0.0
19/08:00pm 17.6 16.9 11.4 67 3.5 NNE 6 9 3 5 1009.1 1006.3 0.0
19/07:30pm 18.6 17.7 11.4 63 4.1 NNE 7 15 4 8 1009.3 1006.5 0.0
19/07:00pm 20.0 19.4 11.8 59 4.7 NNE 6 13 3 7 1009.2 1006.4 0.0
19/06:30pm 20.9 20.3 11.8 56 5.2 NNE 6 15 3 8 1009.0 1006.2 0.0
19/06:00pm 23.4 23.0 12.4 50 6.5 NNE 6 13 3 7 1009.1 1006.3 0.0
19/05:30pm 24.0 23.3 12.0 47 7.0 NNE 7 15 4 8 1009.6 1006.7 0.0
19/05:00pm 25.1 24.7 12.3 45 7.6 NNE 6 11 3 6 1009.9 1007.1 0.0
19/04:30pm 25.6 25.1 12.1 43 8.0 NNE 6 11 3 6 1010.5 1007.7 0.0
19/04:00pm 25.1 24.4 11.3 42 8.0 NNE 6 17 3 9 1010.8 1008.0 0.0
19/03:30pm 25.5 24.2 10.1 38 8.8 NE 7 19 4 10 1011.2 1008.3 0.0
19/03:00pm 26.5 25.6 10.6 37 9.2 NE 6 11 3 6 1011.7 1008.9 0.0
19/02:30pm 25.0 24.1 10.5 40 8.3 NE 6 11 3 6 1012.0 1009.2 0.0
19/02:00pm 23.3 22.4 9.3 41 7.8 NE 4 11 2 6 1012.5 1009.7 0.0
19/01:30pm 24.6 23.5 10.1 40 8.2 NE 6 13 3 7 1013.1 1010.3 0.0
19/01:00pm 24.2 23.1 9.8 40 8.1 ENE 6 11 3 6 1013.5 1010.7 0.0
19/12:30pm 24.0 22.5 8.4 37 8.6 NE 6 9 3 5 1013.9 1011.1 0.0
19/12:00pm 22.6 20.9 7.6 38 8.1 NE 6 17 3 9 1014.4 1011.7 0.0
19/11:30am 21.1 19.3 7.0 40 7.4 NE 6 11 3 6 1014.7 1011.9 0.0
19/11:00am 20.0 18.1 7.7 45 6.5 NE 7 13 4 7 1015.0 1012.2 0.0
19/10:30am 19.0 17.4 7.8 48 5.9 NE 6 13 3 7 1015.4 1012.6 0.0
19/10:00am 17.2 15.6 6.4 49 5.5 NNE 4 9 2 5 1015.7 1013.0 0.0
19/09:30am 17.1 15.4 7.7 54 4.9 NNE 6 7 3 4 1015.9 1013.2 0.0
19/09:00am 14.5 13.2 6.1 57 4.2 NE 2 6 1 3 1016.2 1013.4 0.0
19/08:30am 13.1 11.9 6.5 64 3.3 NNE 2 4 1 2 1016.4 1013.6 0.0
19/08:00am 11.4 10.2 4.6 63 3.2 CALM 0 0 0 0 1016.5 1013.7 0.0
19/07:30am 10.3 9.0 4.2 66 2.8 CALM 0 0 0 0 1016.5 1013.7 0.0
19/07:00am 9.7 8.5 4.5 70 2.4 CALM 0 0 0 0 1016.4 1013.6 0.0
19/06:30am 9.2 8.0 4.4 72 2.2 CALM 0 0 0 0 1016.2 1013.4 0.0
19/06:00am 8.6 7.4 4.4 75 1.9 CALM 0 0 0 0 1016.2 1013.4 0.0
19/05:30am 8.3 7.0 4.1 75 1.9 CALM 0 0 0 0 1016.0 1013.3 0.0
19/05:00am 8.2 7.0 4.4 77 1.7 CALM 0 0 0 0 1015.9 1013.2 0.0
19/04:30am 8.4 7.2 4.4 76 1.8 CALM 0 2 0 1 1015.7 1013.0 0.0
19/04:00am 8.2 7.1 5.1 81 1.4 CALM 0 0 0 0 1016.0 1013.3 0.0
19/03:30am 8.3 7.3 5.8 84 1.2 CALM 0 0 0 0 1016.4 1013.6 0.0
19/03:00am 8.5 7.5 5.8 83 1.3 CALM 0 0 0 0 1016.8 1014.0 0.0
19/02:30am 8.5 7.6 6.1 85 1.1 CALM 0 0 0 0 1017.1 1014.4 0.0
19/02:00am 8.7 7.9 6.5 86 1.1 CALM 0 0 0 0 1017.4 1014.7 0.0
19/01:30am 8.8 8.0 6.4 85 1.1 CALM 0 0 0 0 1017.6 1014.9 0.0
19/01:00am 8.8 8.1 6.9 88 0.9 CALM 0 0 0 0 1017.7 1015.0 0.0
19/12:30am 9.0 7.9 7.1 88 0.9 SW 2 4 1 2 1017.7 1015.0 0.0
19/12:00am 9.8 8.9 7.7 87 1.0 SW 2 4 1 2 1018.1 1015.3 0.0
 
Date/Time
EDT
Temp
°C
App
Temp
°C
Dew
Point
°C
Rel
Hum
%
Delta-T
°C
Wind Press
QNH
hPa
Press
MSL
hPa
Rain since
9am
mm
Dir  Spd
km/h
Gust
km/h
Spd
kts
Gust
kts
18/11:30pm 10.4 9.6 8.0 85 1.2 SSW 2 9 1 5 1018.0 1015.2 0.0
18/11:00pm 10.6 9.5 8.4 86 1.1 SW 4 7 2 4 1018.1 1015.3 0.0
18/10:30pm 10.7 9.9 8.3 85 1.2 SSW 2 7 1 4 1018.0 1015.2 0.0
18/10:00pm 10.6 9.8 8.2 85 1.2 SSW 2 4 1 2 1017.9 1015.1 0.0
18/09:30pm 10.9 10.1 8.0 82 1.5 SW 2 7 1 4 1017.5 1014.8 0.0
18/09:00pm 11.2 9.5 7.7 79 1.8 SW 6 11 3 6 1017.1 1014.4 0.0
18/08:30pm 11.3 10.1 8.2 81 1.6 SW 4 7 2 4 1016.6 1013.8 0.0
18/08:00pm 11.9 10.4 8.4 79 1.8 SSW 6 9 3 5 1016.0 1013.3 0.0
18/07:30pm 12.5 11.2 9.1 80 1.8 SW 6 13 3 7 1015.6 1012.9 0.0
18/07:00pm 13.0 11.7 9.3 78 1.9 SW 6 11 3 6 1015.1 1012.3 0.0
18/06:30pm 13.5 12.3 9.7 78 2.0 SW 6 11 3 6 1015.0 1012.2 0.0
18/06:00pm 14.0 13.0 10.4 79 1.9 SSW 6 9 3 5 1014.9 1012.1 0.0
18/05:30pm 13.4 12.3 10.0 80 1.8 SSW 6 13 3 7 1014.6 1011.8 0.0
18/05:00pm 13.5 12.6 10.7 83 1.5 SSW 6 11 3 6 1014.6 1011.8 0.0
18/04:30pm 13.1 12.2 10.5 84 1.4 SSW 6 9 3 5 1014.7 1011.9 0.0
18/04:00pm 13.1 12.6 10.8 86 1.2 SSW 4 7 2 4 1014.7 1011.9 0.0
18/03:30pm 11.9 11.9 11.1 95 0.4 SW 2 7 1 4 1014.6 1011.8 0.0
18/03:00pm 11.6 11.2 11.1 97 0.3 SSW 4 6 2 3 1014.4 1011.7 0.0
18/02:30pm 11.3 10.5 11.0 98 0.2 SSW 6 9 3 5 1014.2 1011.5 0.0
18/02:00pm 11.4 11.0 11.1 98 0.2 SSW 4 7 2 4 1014.1 1011.4 0.0
18/01:30pm 11.6 11.3 11.3 98 0.2 SSW 4 11 2 6 1013.8 1011.0 0.0
18/01:00pm 11.8 11.1 11.5 98 0.2 SW 6 9 3 5 1013.5 1010.7 0.0
18/12:30pm 11.9 11.3 11.6 98 0.2 SSW 6 11 3 6 1013.3 1010.5 0.0
18/12:00pm 12.4 11.7 12.1 98 0.2 SW 7 13 4 7 1013.1 1010.3 0.0
18/11:30am 12.9 12.3 12.4 97 0.3 SW 7 13 4 7 1012.6 1009.9 0.0
18/11:00am 13.5 13.1 12.9 96 0.3 SW 7 15 4 8 1012.5 1009.7 0.0
18/10:30am 14.3 14.1 12.9 91 0.8 SW 6 13 3 7 1012.2 1009.4 0.0
18/10:00am 16.6 16.5 13.3 81 1.9 SSW 6 9 3 5 1011.6 1008.8 0.0
18/09:30am 16.5 16.4 13.4 82 1.8 SSW 6 11 3 6 1011.3 1008.5 0.0
18/09:00am 16.8 16.5 12.7 77 2.4 SW 6 13 3 7 1010.8 1008.0 0.0
18/08:30am 18.7 18.0 11.3 62 4.2 SW 6 17 3 9 1010.3 1007.5 0.0
18/08:00am 18.8 18.3 10.9 60 4.4 SW 4 11 2 6 1009.1 1006.3 0.0
18/07:30am 18.3 18.1 10.4 60 4.4 E 2 7 1 4 1008.6 1005.8 0.0
18/07:00am 17.8 17.9 10.2 61 4.2 CALM 0 0 0 0 1009.2 1006.4 0.0
18/06:30am 17.6 17.6 9.8 60 4.2 CALM 0 4 0 2 1009.7 1006.8 0.0
18/06:00am 18.0 17.2 9.6 58 4.6 SW 4 9 2 5 1009.6 1006.7 0.0
18/05:30am 17.8 17.0 9.7 59 4.4 SW 4 7 2 4 1009.8 1006.9 0.0
18/05:00am 17.2 16.7 9.4 60 4.2 SW 2 4 1 2 1009.9 1007.1 0.0
18/04:30am 17.6 17.1 9.5 59 4.4 SW 2 6 1 3 1009.6 1006.7 0.0
18/04:00am 17.5 17.4 9.4 59 4.4 CALM 0 2 0 1 1009.4 1006.6 0.0
18/03:30am 17.3 16.8 9.5 60 4.2 SSW 2 6 1 3 1010.0 1007.2 0.0
18/03:00am 18.6 17.4 9.4 55 5.0 SSW 6 9 3 5 1010.2 1007.4 0.0
18/02:30am 19.3 18.8 8.0 48 6.0 CALM 0 6 0 3 1010.5 1007.7 0.0
18/02:00am 20.3 18.9 7.3 43 6.9 SW 4 7 2 4 1010.5 1007.7 0.0
18/01:30am 19.4 17.7 7.5 46 6.3 SSW 6 9 3 5 1009.9 1007.1 0.0
18/01:29am 19.4 17.7 7.5 46 6.3 SSW 6 9 3 5 1009.9 1007.1 0.0
18/01:00am 23.5 21.5 6.3 33 9.1 N 6 13 3 7 1007.9 1005.0 0.0
18/12:30am 23.8 21.7 5.7 31 9.5 N 6 13 3 7 1008.6 1005.8 0.0
18/12:00am 24.1 22.3 3.4 26 10.4 W 2 6 1 3 1009.4 1006.6 0.0
 
Date/Time
EDT
Temp
°C
App
Temp
°C
Dew
Point
°C
Rel
Hum
%
Delta-T
°C
Wind Press
QNH
hPa
Press
MSL
hPa
Rain since
9am
mm
Dir  Spd
km/h
Gust
km/h
Spd
kts
Gust
kts
17/11:30pm 22.9 20.9 4.4 30 9.4 W 4 11 2 6 1010.2 1007.4 0.0
17/11:00pm 23.1 21.5 4.6 30 9.5 NW 2 9 1 5 1010.7 1007.9 0.0
17/10:30pm 22.1 20.2 5.1 33 8.7 NNE 4 7 2 4 1011.2 1008.3 0.0
17/10:00pm 22.2 20.4 5.2 33 8.7 NNE 4 6 2 3 1011.5 1008.7 0.0
17/09:30pm 22.6 21.4 6.4 35 8.5 NNE 2 6 1 3 1011.4 1008.6 0.0
17/09:00pm 22.8 21.8 5.7 33 8.9 CALM 0 4 0 2 1011.5 1008.7 0.0
17/08:30pm 23.2 22.8 8.1 38 8.2 CALM 0 4 0 2 1011.7 1008.9 0.0
17/08:00pm 23.9 23.4 7.9 36 8.7 CALM 0 0 0 0 1011.8 1009.0 0.0
17/07:30pm 24.5 23.9 7.2 33 9.3 CALM 0 0 0 0 1012.0 1009.2 0.0
17/07:00pm 25.2 24.9 8.7 35 9.2 CALM 0 0 0 0 1012.1 1009.3 0.0
17/06:30pm 26.3 25.7 7.4 30 10.3 CALM 0 2 0 1 1012.0 1009.2 0.0
17/06:00pm 26.9 26.3 8.8 32 10.2 SW 2 6 1 3 1012.0 1009.2 0.0
17/05:30pm 28.6 27.7 10.8 33 10.4 SW 6 11 3 6 1011.4 1008.6 0.0
17/05:21pm 29.1 28.0 10.7 32 10.8 SW 7 15 4 8 1011.0 1008.2 0.0
17/05:00pm 34.2 31.0 -0.4 11 17.4 WSW 6 17 3 9 1010.6 1007.8 0.0
17/04:30pm 34.5 30.8 -0.2 11 17.5 WSW 9 17 5 9 1010.8 1008.0 0.0
17/04:00pm 33.7 29.3 0.4 12 16.9 SW 13 22 7 12 1010.8 1008.0 0.0
17/03:30pm 35.5 32.8 2.9 13 17.4 W 6 20 3 11 1011.0 1008.2 0.0
17/03:00pm 33.5 31.3 3.3 15 16.1 SW 4 9 2 5 1011.2 1008.3 0.0
17/02:30pm 33.3 30.5 2.2 14 16.2 WSW 6 17 3 9 1011.3 1008.5 0.0
17/02:00pm 32.1 30.4 4.0 17 15.0 NW 2 9 1 5 1011.5 1008.7 0.0
17/01:30pm 32.1 30.9 4.8 18 14.7 CALM 0 6 0 3 1012.0 1009.2 0.0
17/01:00pm 33.6 31.7 6.8 19 15.1 WSW 6 13 3 7 1012.2 1009.4 0.0

Other Formats:

Comma delimited format used in spreadsheet applications
http://www.bom.gov.au/fwo/IDV60801/IDV60801.94914.axf

JavaScript Object Notation format (JSON) in row-major order
http://www.bom.gov.au/fwo/IDV60801/IDV60801.94914.json